createdAt,value
2022-08-02T00:00:13.101Z,2.33
2022-08-02T00:02:39.629Z,2.45
2022-08-02T00:05:06.844Z,2.55
2022-08-02T00:07:37.737Z,2.40
2022-08-02T00:10:10.604Z,1.92
2022-08-02T00:12:44.070Z,2.47
2022-08-02T00:15:11.096Z,2.22
2022-08-02T00:17:50.321Z,2.78
2022-08-02T00:20:16.814Z,2.42
2022-08-02T00:22:45.438Z,2.40
2022-08-02T00:25:12.110Z,2.58
2022-08-02T00:27:43.374Z,2.45
2022-08-02T00:30:12.917Z,2.70
2022-08-02T00:32:41.832Z,2.92
2022-08-02T00:35:08.776Z,2.75
2022-08-02T00:37:46.338Z,2.17
2022-08-02T00:40:17.313Z,2.42
2022-08-02T00:42:50.380Z,3.03
2022-08-02T00:45:21.663Z,2.55
2022-08-02T00:48:16.391Z,2.17
2022-08-02T00:50:44.203Z,2.80
2022-08-02T00:53:17.377Z,2.55
2022-08-02T00:55:43.977Z,2.70
2022-08-02T00:58:17.360Z,2.67
2022-08-02T01:00:46.499Z,2.65
2022-08-02T01:03:19.371Z,2.78
2022-08-02T01:06:10.239Z,2.30
2022-08-02T01:08:38.367Z,2.20
2022-08-02T01:11:05.057Z,2.20
2022-08-02T01:13:44.356Z,2.33
2022-08-02T01:16:15.960Z,2.42
2022-08-02T01:18:54.406Z,2.17
2022-08-02T01:21:39.311Z,2.63
2022-08-02T01:24:27.376Z,2.45
2022-08-02T01:27:05.656Z,2.40
2022-08-02T01:29:44.422Z,2.35
2022-08-02T01:32:20.516Z,2.13
2022-08-02T01:35:14.377Z,2.10
2022-08-02T01:37:55.334Z,2.47
2022-08-02T01:40:35.421Z,2.30
2022-08-02T01:43:04.821Z,2.30
2022-08-02T01:45:48.408Z,2.10
2022-08-02T01:48:16.385Z,2.10
2022-08-02T01:50:51.380Z,2.53
2022-08-02T01:53:20.245Z,2.17
2022-08-02T01:55:57.755Z,2.03
2022-08-02T01:58:29.899Z,2.13
2022-08-02T02:00:58.267Z,2.22
2022-08-02T02:03:34.146Z,2.10
2022-08-02T02:06:04.056Z,2.63
2022-08-02T02:08:35.084Z,2.67
2022-08-02T02:12:08.646Z,2.20
2022-08-02T02:13:50.398Z,2.85
2022-08-02T02:16:19.061Z,2.55
2022-08-02T02:18:51.678Z,2.90
2022-08-02T02:21:18.408Z,2.50
2022-08-02T02:23:45.026Z,2.72
2022-08-02T02:26:15.209Z,2.60
2022-08-02T02:28:47.721Z,2.90
2022-08-02T02:31:18.799Z,2.33
2022-08-02T02:33:57.149Z,2.83
2022-08-02T02:36:23.841Z,2.88
2022-08-02T02:38:53.060Z,2.72
2022-08-02T02:41:21.294Z,2.70
2022-08-02T02:43:49.073Z,3.08
2022-08-02T02:46:18.084Z,2.50
2022-08-02T02:48:45.042Z,2.78
2022-08-02T02:51:14.123Z,2.30
2022-08-02T02:54:32.101Z,2.40
2022-08-02T02:56:31.550Z,2.58
2022-08-02T02:59:00.602Z,2.90
2022-08-02T03:01:56.363Z,2.25
2022-08-02T03:04:21.107Z,2.10
2022-08-02T03:06:47.743Z,3.78
2022-08-02T03:09:16.745Z,2.25
2022-08-02T03:11:43.566Z,2.55
2022-08-02T03:14:12.338Z,2.42
2022-08-02T03:16:44.180Z,2.92
2022-08-02T03:21:37.699Z,3.15
2022-08-02T03:24:04.985Z,2.35
2022-08-02T03:26:31.410Z,2.95
2022-08-02T03:28:57.958Z,2.50
2022-08-02T03:31:24.461Z,2.33
2022-08-02T03:33:51.233Z,3.50
2022-08-02T03:36:21.202Z,2.78
2022-08-02T03:38:48.160Z,2.60
2022-08-02T03:41:20.655Z,2.63
2022-08-02T03:43:48.439Z,1.70
2022-08-02T03:46:19.378Z,2.90
2022-08-02T03:48:47.597Z,2.67
2022-08-02T03:51:14.562Z,1.80
2022-08-02T03:53:41.562Z,2.55
2022-08-02T03:56:11.256Z,2.40
2022-08-02T03:58:37.884Z,1.50
2022-08-02T04:01:06.878Z,2.38
2022-08-02T04:03:33.613Z,2.15
2022-08-02T04:06:04.099Z,2.60
2022-08-02T04:08:37.977Z,3.93
2022-08-02T04:11:23.995Z,3.40
2022-08-02T04:13:54.677Z,2.80
2022-08-02T04:16:37.736Z,2.53
2022-08-02T04:19:14.894Z,5.10
2022-08-02T04:21:51.658Z,4.00
2022-08-02T04:24:25.162Z,2.78
2022-08-02T04:27:06.559Z,2.80
2022-08-02T04:29:47.169Z,2.38
2022-08-02T04:32:14.814Z,2.15
2022-08-02T04:34:44.880Z,2.50
2022-08-02T04:37:17.077Z,3.50
2022-08-02T04:39:43.779Z,2.67
2022-08-02T04:42:10.432Z,2.58
2022-08-02T04:44:37.891Z,2.67
2022-08-02T04:47:06.892Z,2.55
2022-08-02T04:49:33.656Z,3.05
2022-08-02T04:52:01.068Z,3.13
2022-08-02T04:54:27.597Z,2.90
2022-08-02T04:56:54.028Z,2.70
2022-08-02T04:59:20.983Z,2.60
2022-08-02T05:01:47.405Z,2.40
2022-08-02T05:04:13.935Z,2.20
2022-08-02T05:06:40.369Z,2.72
2022-08-02T05:09:06.794Z,3.17
2022-08-02T05:11:36.506Z,2.80
2022-08-02T05:14:05.561Z,3.42
2022-08-02T05:16:32.525Z,2.85
2022-08-02T05:19:02.904Z,2.53
2022-08-02T05:21:30.276Z,1.73
2022-08-02T05:23:56.996Z,2.67
2022-08-02T05:26:25.725Z,3.15
2022-08-02T05:28:52.321Z,2.45
2022-08-02T05:31:18.813Z,2.80
2022-08-02T05:33:45.314Z,4.10
2022-08-02T05:36:11.738Z,2.92
2022-08-02T05:38:38.235Z,3.33
2022-08-02T05:41:07.842Z,3.60
2022-08-02T05:43:34.482Z,3.53
2022-08-02T05:46:05.847Z,3.75
2022-08-02T05:48:32.515Z,3.92
2022-08-02T05:51:04.871Z,2.65
2022-08-02T05:53:46.594Z,4.40
2022-08-02T05:56:37.548Z,2.90
2022-08-02T05:59:22.163Z,2.78
2022-08-02T06:01:52.421Z,3.20
2022-08-02T06:04:25.585Z,3.63
2022-08-02T06:06:56.509Z,2.40
2022-08-02T06:09:27.473Z,3.20
2022-08-02T06:12:02.178Z,2.88
2022-08-02T06:14:32.978Z,2.75
2022-08-02T06:17:04.122Z,3.17
2022-08-02T06:19:46.871Z,3.28
2022-08-02T06:22:35.751Z,3.47
2022-08-02T06:25:04.207Z,3.03
2022-08-02T06:27:30.794Z,3.30
2022-08-02T06:29:57.893Z,3.40
2022-08-02T06:32:27.455Z,3.30
2022-08-02T06:34:54.307Z,2.75
2022-08-02T06:37:31.054Z,3.65
2022-08-02T06:40:21.221Z,3.92
2022-08-02T06:43:11.342Z,3.30
2022-08-02T06:45:38.192Z,3.78
2022-08-02T06:48:05.460Z,3.15
2022-08-02T06:50:32.220Z,3.55
2022-08-02T06:53:01.588Z,4.30
2022-08-02T06:55:29.579Z,3.60
2022-08-02T06:57:55.990Z,3.80
2022-08-02T07:00:22.510Z,2.70
2022-08-02T07:02:49.563Z,2.72
2022-08-02T07:05:16.287Z,2.90
2022-08-02T07:07:43.142Z,2.55
2022-08-02T07:10:09.685Z,2.97
2022-08-02T07:12:36.461Z,2.50
2022-08-02T07:15:06.459Z,3.00
2022-08-02T07:17:33.985Z,2.90
2022-08-02T07:20:01.030Z,2.92
2022-08-02T07:22:34.662Z,2.83
2022-08-02T07:25:01.897Z,2.70
2022-08-02T07:27:35.665Z,2.03
2022-08-02T07:30:02.155Z,3.08
2022-08-02T07:32:36.700Z,3.40
2022-08-02T07:35:06.953Z,2.50
2022-08-02T07:37:54.786Z,2.63
2022-08-02T07:40:25.019Z,2.38
2022-08-02T07:42:57.969Z,2.35
2022-08-02T07:45:31.984Z,2.03
2022-08-02T07:47:58.413Z,2.35
2022-08-02T07:50:24.939Z,1.92
2022-08-02T07:52:57.361Z,2.25
2022-08-02T07:55:31.167Z,2.08
2022-08-02T07:58:06.980Z,1.52
2022-08-02T08:00:37.884Z,1.52
2022-08-02T08:03:04.328Z,1.58
2022-08-02T08:05:30.765Z,1.95
2022-08-02T08:08:06.689Z,1.58
2022-08-02T08:10:33.495Z,1.70
2022-08-02T08:13:13.713Z,1.67
2022-08-02T08:15:40.197Z,1.40
2022-08-02T08:18:06.634Z,1.10
2022-08-02T08:20:33.188Z,1.35
2022-08-02T08:22:59.848Z,1.50
2022-08-02T08:25:31.105Z,1.20
2022-08-02T08:28:06.221Z,1.50
2022-08-02T08:30:35.179Z,1.40
2022-08-02T08:33:01.967Z,0.88
2022-08-02T08:35:28.797Z,1.30
2022-08-02T08:37:57.684Z,1.00
2022-08-02T08:40:25.285Z,0.80
2022-08-02T08:42:52.214Z,0.90
2022-08-02T08:45:18.683Z,1.08
2022-08-02T08:47:53.181Z,1.20
2022-08-02T08:50:25.258Z,1.10
2022-08-02T08:53:07.795Z,1.45
2022-08-02T08:55:37.524Z,1.35
2022-08-02T08:58:05.347Z,1.15
2022-08-02T09:00:34.732Z,0.95
2022-08-02T09:03:06.699Z,1.00
2022-08-02T09:05:39.274Z,1.10
2022-08-02T09:08:07.179Z,1.20
2022-08-02T09:10:34.638Z,0.90
2022-08-02T09:13:38.444Z,1.73
2022-08-02T09:16:14.709Z,1.50
2022-08-02T09:18:52.773Z,1.17
2022-08-02T09:21:19.184Z,0.98
2022-08-02T09:23:55.465Z,0.70
2022-08-02T09:26:23.811Z,0.90
2022-08-02T09:28:59.623Z,1.02
2022-08-02T09:31:26.569Z,1.08
2022-08-02T09:33:57.261Z,1.05
2022-08-02T09:36:25.287Z,1.00
2022-08-02T09:39:04.237Z,0.90
2022-08-02T09:41:33.739Z,1.05
2022-08-02T09:44:04.380Z,1.02
2022-08-02T09:46:47.927Z,0.93
2022-08-02T09:49:16.514Z,0.80
2022-08-02T09:51:49.445Z,0.70
2022-08-02T09:54:18.947Z,1.00
2022-08-02T09:56:47.126Z,1.10
2022-08-02T09:59:15.013Z,1.10
2022-08-02T10:01:44.332Z,1.08
2022-08-02T10:04:26.371Z,0.93
2022-08-02T10:06:56.739Z,1.00
2022-08-02T10:09:23.396Z,0.90
2022-08-02T10:11:51.205Z,0.95
2022-08-02T10:14:20.445Z,1.05
2022-08-02T10:16:46.850Z,1.10
2022-08-02T10:19:13.359Z,0.75
2022-08-02T10:22:04.777Z,0.70
2022-08-02T10:27:06.464Z,1.00
2022-08-02T10:29:43.946Z,0.85
2022-08-02T10:32:31.317Z,1.00
2022-08-02T10:35:20.031Z,0.90
2022-08-02T10:38:01.138Z,0.70
2022-08-02T10:40:45.507Z,0.85
2022-08-02T10:43:13.521Z,0.73
2022-08-02T10:45:40.149Z,0.60
2022-08-02T10:48:12.275Z,0.90
2022-08-02T10:50:50.745Z,0.77
2022-08-02T10:53:21.473Z,0.60
2022-08-02T10:55:47.890Z,0.80
2022-08-02T10:58:26.043Z,0.77
2022-08-02T11:01:06.949Z,0.60
2022-08-02T11:03:40.382Z,0.63
2022-08-02T11:06:25.509Z,0.60
2022-08-02T11:09:41.235Z,1.00
2022-08-02T11:12:26.880Z,0.60
2022-08-02T11:15:07.430Z,0.55
2022-08-02T11:18:01.893Z,0.57
2022-08-02T11:20:28.574Z,0.80
2022-08-02T11:23:02.867Z,0.93
2022-08-02T11:25:54.387Z,0.75
2022-08-02T11:28:24.598Z,0.70
2022-08-02T11:31:02.747Z,0.70
2022-08-02T11:33:33.782Z,0.70
2022-08-02T11:36:06.158Z,0.63
2022-08-02T11:38:35.207Z,0.60
2022-08-02T11:41:09.989Z,0.52
2022-08-02T11:43:40.019Z,0.73
2022-08-02T11:46:15.970Z,0.60
2022-08-02T11:48:44.038Z,0.70
2022-08-02T11:51:15.805Z,0.93
2022-08-02T11:53:53.911Z,0.60
2022-08-02T11:56:29.074Z,0.43
2022-08-02T11:59:10.670Z,1.15
2022-08-02T12:01:49.004Z,0.73
2022-08-02T12:04:22.546Z,0.60
2022-08-02T12:06:59.775Z,0.50
2022-08-02T12:09:31.620Z,0.52
2022-08-02T12:11:59.331Z,0.50
2022-08-02T12:14:31.173Z,0.52
2022-08-02T12:17:37.264Z,0.60
2022-08-02T12:20:14.053Z,0.60
2022-08-02T12:22:42.120Z,0.68
2022-08-02T12:25:34.025Z,0.60
2022-08-02T12:28:25.288Z,0.50
2022-08-02T12:30:59.690Z,0.68
2022-08-02T12:33:28.706Z,0.90
2022-08-02T12:35:56.163Z,0.50
2022-08-02T12:38:22.850Z,0.60
2022-08-02T12:40:56.086Z,0.80
2022-08-02T12:43:24.293Z,0.57
2022-08-02T12:46:02.946Z,0.50
2022-08-02T12:48:52.338Z,0.50
2022-08-02T12:51:54.836Z,0.45
2022-08-02T12:54:31.744Z,0.45
2022-08-02T12:57:16.958Z,0.43
2022-08-02T12:59:49.120Z,0.55
2022-08-02T13:02:25.078Z,0.55
2022-08-02T13:04:53.986Z,0.30
2022-08-02T13:07:26.960Z,0.60
2022-08-02T13:10:03.169Z,0.70
2022-08-02T13:12:36.967Z,0.73
2022-08-02T13:15:03.741Z,0.60
2022-08-02T13:17:39.565Z,0.45
2022-08-02T13:20:07.471Z,0.40
2022-08-02T13:22:38.264Z,0.70
2022-08-02T13:25:20.653Z,0.45
2022-08-02T13:27:52.300Z,0.63
2022-08-02T13:30:19.345Z,0.63
2022-08-02T13:32:45.985Z,0.60
2022-08-02T13:35:17.843Z,0.57
2022-08-02T13:37:45.449Z,0.60
2022-08-02T13:40:22.351Z,0.47
2022-08-02T13:42:49.496Z,0.70
2022-08-02T13:45:16.059Z,0.90
2022-08-02T13:48:03.345Z,0.50
2022-08-02T13:50:31.291Z,0.80
2022-08-02T13:52:59.934Z,0.50
2022-08-02T13:55:26.498Z,0.68
2022-08-02T13:57:53.795Z,0.50
2022-08-02T14:00:34.947Z,0.40
2022-08-02T14:03:05.954Z,0.77
2022-08-02T14:05:45.407Z,0.50
2022-08-02T14:08:22.786Z,0.68
2022-08-02T14:10:54.055Z,0.60
2022-08-02T14:13:22.711Z,0.80
2022-08-02T14:15:49.258Z,0.55
2022-08-02T14:18:18.715Z,0.50
2022-08-02T14:20:45.458Z,0.85
2022-08-02T14:23:12.297Z,0.50
2022-08-02T14:25:39.226Z,0.80
2022-08-02T14:28:06.078Z,0.50
2022-08-02T14:30:34.931Z,0.65
2022-08-02T14:33:08.136Z,0.50
2022-08-02T14:35:35.028Z,0.55
2022-08-02T14:38:01.633Z,0.43
2022-08-02T14:40:31.516Z,0.45
2022-08-02T14:43:02.359Z,0.63
2022-08-02T14:45:40.256Z,0.60
2022-08-02T14:48:07.700Z,0.70
2022-08-02T14:50:34.434Z,0.68
2022-08-02T14:53:00.891Z,0.63
2022-08-02T14:55:27.303Z,0.50
2022-08-02T14:58:00.078Z,0.90
2022-08-02T15:00:31.186Z,0.60
2022-08-02T15:03:17.334Z,1.02
2022-08-02T15:05:48.363Z,0.80
2022-08-02T15:08:22.104Z,0.50
2022-08-02T15:10:50.949Z,0.88
2022-08-02T15:13:24.100Z,0.90
2022-08-02T15:15:50.738Z,0.90
2022-08-02T15:18:17.192Z,0.50
2022-08-02T15:20:54.520Z,0.73
2022-08-02T15:23:24.919Z,0.93
2022-08-02T15:26:06.732Z,0.93
2022-08-02T15:28:35.725Z,1.08
2022-08-02T15:31:04.666Z,0.73
2022-08-02T15:33:31.132Z,0.60
2022-08-02T15:35:57.624Z,0.60
2022-08-02T15:38:24.157Z,0.60
2022-08-02T15:40:50.648Z,0.60
2022-08-02T15:43:17.129Z,0.70
2022-08-02T15:45:43.543Z,0.68
2022-08-02T15:48:10.412Z,0.57
2022-08-02T15:50:41.790Z,0.70
2022-08-02T15:53:08.245Z,0.63
2022-08-02T15:55:39.867Z,0.88
2022-08-02T15:58:22.521Z,0.75
2022-08-02T16:00:49.634Z,0.65
2022-08-02T16:03:16.023Z,0.68
2022-08-02T16:05:45.018Z,0.65
2022-08-02T16:08:18.162Z,0.75
2022-08-02T16:10:44.589Z,0.90
2022-08-02T16:13:39.654Z,0.60
2022-08-02T16:16:22.366Z,0.40
2022-08-02T16:18:55.141Z,0.45
2022-08-02T16:21:25.470Z,0.75
2022-08-02T16:24:03.068Z,1.10
2022-08-02T16:26:31.320Z,0.68
2022-08-02T16:29:01.264Z,1.13
2022-08-02T16:31:28.010Z,0.85
2022-08-02T16:33:57.191Z,1.17
2022-08-02T16:36:25.701Z,0.68
2022-08-02T16:38:53.754Z,0.60
2022-08-02T16:41:20.927Z,10.98
2022-08-02T16:43:47.474Z,4.10
2022-08-02T16:46:14.035Z,2.33
2022-08-02T16:48:41.034Z,1.70
2022-08-02T16:51:13.919Z,1.10
2022-08-02T16:54:00.352Z,1.45
2022-08-02T16:56:28.267Z,1.00
2022-08-02T16:58:55.004Z,0.90
2022-08-02T17:01:27.068Z,0.82
2022-08-02T17:03:56.885Z,0.90
2022-08-02T17:06:26.258Z,0.70
2022-08-02T17:08:56.119Z,0.60
2022-08-02T17:11:29.815Z,0.80
2022-08-02T17:13:56.334Z,2.20
2022-08-02T17:16:26.488Z,4.00
2022-08-02T17:19:01.206Z,1.75
2022-08-02T17:21:30.024Z,1.90
2022-08-02T17:24:05.993Z,1.80
2022-08-02T17:26:36.549Z,1.60
2022-08-02T17:29:16.425Z,1.20
2022-08-02T17:32:05.006Z,1.50
2022-08-02T17:34:40.217Z,0.93
2022-08-02T17:37:15.566Z,1.10
2022-08-02T17:39:52.202Z,0.73
2022-08-02T17:42:20.171Z,1.10
2022-08-02T17:44:50.005Z,1.20
2022-08-02T17:47:18.119Z,0.82
2022-08-02T17:49:49.424Z,0.90
2022-08-02T17:55:04.155Z,1.58
2022-08-02T17:57:55.565Z,1.40
2022-08-02T18:00:18.208Z,1.20
2022-08-02T18:02:52.766Z,1.23
2022-08-02T18:05:38.998Z,1.08
2022-08-02T18:08:08.188Z,0.75
2022-08-02T18:10:56.453Z,0.90
2022-08-02T18:13:23.491Z,0.90
2022-08-02T18:15:57.026Z,1.00
2022-08-02T18:18:29.743Z,0.90
2022-08-02T18:20:57.126Z,0.70
2022-08-02T18:23:24.076Z,0.90
2022-08-02T18:25:58.258Z,0.90
2022-08-02T18:28:26.733Z,0.88
2022-08-02T18:31:00.226Z,0.70
2022-08-02T18:33:59.935Z,1.00
2022-08-02T18:36:28.263Z,0.90
2022-08-02T18:38:54.903Z,0.95
2022-08-02T18:41:28.716Z,0.85
2022-08-02T18:43:57.352Z,0.93
2022-08-02T18:46:30.290Z,0.93
2022-08-02T18:48:57.979Z,0.90
2022-08-02T18:51:40.282Z,0.85
2022-08-02T18:54:10.605Z,0.85
2022-08-02T18:56:47.449Z,0.85
2022-08-02T18:59:17.115Z,2.15
2022-08-02T19:01:50.554Z,3.42
2022-08-02T19:04:26.806Z,1.83
2022-08-02T19:07:05.460Z,1.60
2022-08-02T19:09:34.738Z,1.17
2022-08-02T19:12:01.199Z,1.17
2022-08-02T19:14:28.789Z,1.30
2022-08-02T19:17:16.139Z,1.00
2022-08-02T19:19:48.124Z,1.13
2022-08-02T19:22:20.385Z,1.10
2022-08-02T19:24:50.296Z,1.02
2022-08-02T19:27:26.030Z,1.08
2022-08-02T19:29:58.995Z,1.20
2022-08-02T19:32:42.790Z,1.10
2022-08-02T19:35:19.330Z,1.45
2022-08-02T19:40:28.791Z,1.52
2022-08-02T19:44:23.585Z,2.85
2022-08-02T19:45:49.886Z,2.15
2022-08-02T19:48:23.559Z,2.10
2022-08-02T19:50:56.202Z,2.00
2022-08-02T19:53:24.125Z,1.95
2022-08-02T19:56:03.044Z,1.85
2022-08-02T19:58:30.946Z,1.92
2022-08-02T20:01:03.823Z,1.88
2022-08-02T20:03:51.426Z,1.73
2022-08-02T20:06:18.039Z,12.52
2022-08-02T20:08:52.935Z,7.97
2022-08-02T20:14:16.487Z,4.93
2022-08-02T20:16:46.024Z,4.68
2022-08-02T20:19:13.792Z,3.58
2022-08-02T20:21:50.506Z,2.60
2022-08-02T20:24:27.314Z,2.20
2022-08-02T20:26:54.925Z,2.63
2022-08-02T20:29:45.044Z,1.92
2022-08-02T20:32:22.851Z,1.95
2022-08-02T20:34:56.375Z,1.75
2022-08-02T20:37:59.269Z,1.98
2022-08-02T20:40:19.376Z,1.55
2022-08-02T20:42:48.042Z,1.77
2022-08-02T20:45:21.363Z,2.05
2022-08-02T20:47:52.404Z,2.10
2022-08-02T20:50:38.402Z,1.95
2022-08-02T20:53:06.438Z,1.50
2022-08-02T20:56:12.704Z,1.90
2022-08-02T20:59:21.130Z,2.25
2022-08-02T21:02:27.776Z,2.10
2022-08-02T21:05:44.002Z,2.25
2022-08-02T21:08:55.459Z,2.20
2022-08-02T21:11:59.146Z,2.08
2022-08-02T21:15:02.890Z,1.65
2022-08-02T21:18:12.576Z,3.40
2022-08-02T21:21:23.947Z,2.65
2022-08-02T21:24:30.519Z,2.95
2022-08-02T21:27:52.555Z,2.10
2022-08-02T21:30:57.857Z,2.05
2022-08-02T21:34:05.058Z,1.70
2022-08-02T21:37:33.083Z,1.70
2022-08-02T21:40:37.294Z,1.80
2022-08-02T21:43:43.919Z,1.60
2022-08-02T21:46:49.557Z,1.67
2022-08-02T21:50:12.671Z,1.52
2022-08-02T21:53:18.950Z,1.50
2022-08-02T21:56:04.650Z,1.58
2022-08-02T21:58:36.262Z,1.60
2022-08-02T22:01:02.770Z,1.67
2022-08-02T22:03:29.625Z,1.45
2022-08-02T22:05:56.211Z,1.48
2022-08-02T22:08:22.778Z,1.30
2022-08-02T22:11:03.182Z,1.52
2022-08-02T22:13:38.949Z,1.65
2022-08-02T22:16:14.020Z,1.70
2022-08-02T22:18:51.366Z,1.70
2022-08-02T22:21:20.147Z,2.15
2022-08-02T22:23:50.525Z,1.83
2022-08-02T22:26:19.163Z,2.05
2022-08-02T22:28:51.111Z,2.05
2022-08-02T22:31:40.660Z,3.80
2022-08-02T22:34:26.853Z,3.65
2022-08-02T22:36:58.709Z,2.30
2022-08-02T22:39:25.276Z,2.22
2022-08-02T22:42:10.848Z,1.80
2022-08-02T22:44:41.403Z,2.67
2022-08-02T22:47:14.647Z,4.05
2022-08-02T22:49:54.496Z,2.83
2022-08-02T22:52:23.948Z,2.92
2022-08-02T22:54:52.620Z,3.00
2022-08-02T22:57:30.723Z,2.67
2022-08-02T22:59:08.489Z,8.73
2022-08-02T22:59:58.880Z,1.65
2022-08-02T23:02:25.656Z,1.88
2022-08-02T23:04:52.323Z,1.70
2022-08-02T23:07:25.490Z,1.33
2022-08-02T23:09:52.175Z,1.70
2022-08-02T23:12:32.503Z,1.80
2022-08-02T23:14:59.106Z,1.83
2022-08-02T23:17:53.076Z,2.00
2022-08-02T23:20:19.977Z,1.88
2022-08-02T23:22:52.493Z,1.80
2022-08-02T23:25:22.225Z,1.70
2022-08-02T23:27:50.990Z,1.75
2022-08-02T23:30:19.021Z,1.67
2022-08-02T23:32:46.854Z,1.80
2022-08-02T23:35:17.303Z,1.77
2022-08-02T23:37:59.081Z,1.58
2022-08-02T23:40:39.486Z,1.50
2022-08-02T23:43:14.566Z,2.00
2022-08-02T23:45:46.074Z,1.75
2022-08-02T23:48:13.236Z,1.83
2022-08-02T23:50:42.121Z,2.10
2022-08-02T23:53:11.674Z,1.80
2022-08-02T23:55:38.057Z,2.13
2022-08-02T23:58:04.452Z,1.98
